createdAt,value
2018-07-10T00:00:32.253Z,2.40
2018-07-10T00:04:12.962Z,2.03
2018-07-10T00:06:58.435Z,2.30
2018-07-10T00:09:38.615Z,2.30
2018-07-10T00:12:07.881Z,2.53
2018-07-10T00:14:37.818Z,2.33
2018-07-10T00:17:07.683Z,2.03
2018-07-10T00:19:36.555Z,2.23
2018-07-10T00:22:06.881Z,2.47
2018-07-10T00:24:36.615Z,1.87
2018-07-10T00:27:07.378Z,2.70
2018-07-10T00:29:38.947Z,3.47
2018-07-10T00:32:08.654Z,2.80
2018-07-10T00:34:38.441Z,2.77
2018-07-10T00:37:07.306Z,2.90
2018-07-10T00:39:37.419Z,3.03
2018-07-10T00:42:06.808Z,2.00
2018-07-10T00:44:36.038Z,2.60
2018-07-10T00:47:05.554Z,2.50
2018-07-10T00:49:36.019Z,3.10
2018-07-10T00:52:05.914Z,2.80
2018-07-10T00:54:35.366Z,2.03
2018-07-10T00:57:05.305Z,2.70
2018-07-10T00:59:35.661Z,2.30
2018-07-10T01:02:06.426Z,2.20
2018-07-10T01:04:36.731Z,2.27
2018-07-10T01:07:06.771Z,2.40
2018-07-10T01:09:37.594Z,2.53
2018-07-10T01:12:07.927Z,2.70
2018-07-10T01:14:38.732Z,3.50
2018-07-10T01:17:09.162Z,3.40
2018-07-10T01:19:39.438Z,2.50
2018-07-10T01:22:08.882Z,3.00
2018-07-10T01:24:38.578Z,3.90
2018-07-10T01:27:08.122Z,3.13
2018-07-10T01:29:43.744Z,3.90
2018-07-10T01:32:12.830Z,4.20
2018-07-10T01:34:43.115Z,3.83
2018-07-10T01:37:13.170Z,3.30
2018-07-10T01:39:43.694Z,3.17
2018-07-10T01:42:13.702Z,2.93
2018-07-10T01:44:44.228Z,2.80
2018-07-10T01:47:14.642Z,3.13
2018-07-10T01:49:45.243Z,3.20
2018-07-10T01:52:15.134Z,2.50
2018-07-10T01:54:45.838Z,2.70
2018-07-10T01:57:15.978Z,3.23
2018-07-10T01:59:46.830Z,2.97
2018-07-10T02:02:17.699Z,3.10
2018-07-10T02:04:48.438Z,2.50
2018-07-10T02:07:19.419Z,2.87
2018-07-10T02:09:49.274Z,2.90
2018-07-10T02:12:19.924Z,2.90
2018-07-10T02:14:49.354Z,2.70
2018-07-10T02:17:18.823Z,2.33
2018-07-10T02:19:48.222Z,2.40
2018-07-10T02:22:18.225Z,2.40
2018-07-10T02:24:50.010Z,3.47
2018-07-10T02:27:19.502Z,2.30
2018-07-10T02:29:49.324Z,2.23
2018-07-10T02:32:19.790Z,2.57
2018-07-10T02:34:48.970Z,2.20
2018-07-10T02:37:18.535Z,2.73
2018-07-10T02:39:48.827Z,2.93
2018-07-10T02:42:19.559Z,3.60
2018-07-10T02:44:49.921Z,2.93
2018-07-10T02:47:19.535Z,2.93
2018-07-10T02:49:50.752Z,2.40
2018-07-10T02:52:22.755Z,2.87
2018-07-10T02:54:53.806Z,2.63
2018-07-10T02:57:24.847Z,3.10
2018-07-10T02:59:54.450Z,2.53
2018-07-10T03:02:26.148Z,2.50
2018-07-10T03:05:02.750Z,1.87
2018-07-10T03:07:33.445Z,2.20
2018-07-10T03:10:04.591Z,1.83
2018-07-10T03:12:36.723Z,2.10
2018-07-10T03:15:11.614Z,1.90
2018-07-10T03:17:40.822Z,2.13
2018-07-10T03:20:11.514Z,2.13
2018-07-10T03:22:41.830Z,2.10
2018-07-10T03:25:11.358Z,2.00
2018-07-10T03:27:42.607Z,2.17
2018-07-10T03:30:13.137Z,1.70
2018-07-10T03:32:43.006Z,1.90
2018-07-10T03:35:12.699Z,2.23
2018-07-10T03:37:43.448Z,2.10
2018-07-10T03:40:14.014Z,2.60
2018-07-10T03:42:44.614Z,1.90
2018-07-10T03:45:15.451Z,2.10
2018-07-10T03:47:46.707Z,2.53
2018-07-10T03:50:17.482Z,1.80
2018-07-10T03:52:48.118Z,1.80
2018-07-10T03:55:21.296Z,2.43
2018-07-10T03:57:54.638Z,2.07
2018-07-10T04:00:25.807Z,2.27
2018-07-10T04:02:57.223Z,2.20
2018-07-10T04:05:27.616Z,2.37
2018-07-10T04:07:58.442Z,2.03
2018-07-10T04:10:33.158Z,2.30
2018-07-10T04:13:08.695Z,2.07
2018-07-10T04:15:39.679Z,1.87
2018-07-10T04:18:12.811Z,2.13
2018-07-10T04:20:55.031Z,2.00
2018-07-10T04:23:29.507Z,1.90
2018-07-10T04:26:00.770Z,1.70
2018-07-10T04:28:34.791Z,1.90
2018-07-10T04:31:22.837Z,2.00
2018-07-10T04:33:53.477Z,1.63
2018-07-10T04:36:24.191Z,2.13
2018-07-10T04:38:56.007Z,1.80
2018-07-10T04:41:31.914Z,1.90
2018-07-10T04:44:08.969Z,1.90
2018-07-10T04:46:57.523Z,1.67
2018-07-10T04:49:31.743Z,1.90
2018-07-10T04:52:11.690Z,2.07
2018-07-10T04:54:52.474Z,2.00
2018-07-10T04:57:27.578Z,1.93
2018-07-10T04:59:59.550Z,1.80
2018-07-10T05:02:30.315Z,1.83
2018-07-10T05:05:00.730Z,1.90
2018-07-10T05:07:30.794Z,1.97
2018-07-10T05:10:01.595Z,2.00
2018-07-10T05:12:32.494Z,1.70
2018-07-10T05:15:02.641Z,2.10
2018-07-10T05:17:31.557Z,2.40
2018-07-10T05:20:00.848Z,2.00
2018-07-10T05:22:31.629Z,2.00
2018-07-10T05:25:00.870Z,2.13
2018-07-10T05:27:32.071Z,2.40
2018-07-10T05:30:02.225Z,2.00
2018-07-10T05:32:32.670Z,2.13
2018-07-10T05:35:03.519Z,2.17
2018-07-10T05:37:37.749Z,2.40
2018-07-10T05:40:12.334Z,2.30
2018-07-10T05:42:49.645Z,2.53
2018-07-10T05:45:22.814Z,2.10
2018-07-10T05:47:56.494Z,2.23
2018-07-10T05:50:30.423Z,2.23
2018-07-10T05:53:00.503Z,2.40
2018-07-10T05:55:32.378Z,2.43
2018-07-10T05:58:03.137Z,2.10
2018-07-10T06:00:33.902Z,2.57
2018-07-10T06:03:04.450Z,2.07
2018-07-10T06:05:34.726Z,2.33
2018-07-10T06:08:04.671Z,2.33
2018-07-10T06:10:34.547Z,2.30
2018-07-10T06:13:04.506Z,2.20
2018-07-10T06:15:36.179Z,2.50
2018-07-10T06:18:06.754Z,2.20
2018-07-10T06:20:36.769Z,2.40
2018-07-10T06:23:07.718Z,2.50
2018-07-10T06:25:38.535Z,2.27
2018-07-10T06:28:21.191Z,2.30
2018-07-10T06:30:51.626Z,2.40
2018-07-10T06:33:28.050Z,2.37
2018-07-10T06:36:36.163Z,2.53
2018-07-10T06:39:08.402Z,2.80
2018-07-10T06:41:45.502Z,2.00
2018-07-10T06:44:17.386Z,2.30
2018-07-10T06:46:49.597Z,2.33
2018-07-10T06:49:23.874Z,2.50
2018-07-10T06:51:59.382Z,2.17
2018-07-10T06:54:31.790Z,2.30
2018-07-10T06:57:07.439Z,2.20
2018-07-10T06:59:39.241Z,2.03
2018-07-10T07:02:09.442Z,1.83
2018-07-10T07:04:39.056Z,2.03
2018-07-10T07:07:09.479Z,2.00
2018-07-10T07:09:39.847Z,2.10
2018-07-10T07:12:10.103Z,2.10
2018-07-10T07:14:41.572Z,2.07
2018-07-10T07:17:11.415Z,2.10
2018-07-10T07:19:42.202Z,2.20
2018-07-10T07:22:12.118Z,2.37
2018-07-10T07:24:43.455Z,1.90
2018-07-10T07:27:15.567Z,2.40
2018-07-10T07:29:46.586Z,2.13
2018-07-10T07:32:17.078Z,1.93
2018-07-10T07:34:46.771Z,2.00
2018-07-10T07:37:19.498Z,2.00
2018-07-10T07:39:49.224Z,2.13
2018-07-10T07:42:19.043Z,2.40
2018-07-10T07:44:50.304Z,2.30
2018-07-10T07:47:28.247Z,2.13
2018-07-10T07:49:59.314Z,1.97
2018-07-10T07:52:31.294Z,2.17
2018-07-10T07:55:02.820Z,2.00
2018-07-10T07:57:33.950Z,2.37
2018-07-10T08:00:03.915Z,2.50
2018-07-10T08:02:34.698Z,1.90
2018-07-10T08:05:04.442Z,2.37
2018-07-10T08:07:34.853Z,2.40
2018-07-10T08:10:05.010Z,2.20
2018-07-10T08:12:35.258Z,2.27
2018-07-10T08:15:06.770Z,2.70
2018-07-10T08:17:37.517Z,2.33
2018-07-10T08:20:07.707Z,2.40
2018-07-10T08:22:38.891Z,2.50
2018-07-10T08:25:08.692Z,2.30
2018-07-10T08:27:39.245Z,2.80
2018-07-10T08:30:10.007Z,2.30
2018-07-10T08:32:39.635Z,2.30
2018-07-10T08:35:10.426Z,2.33
2018-07-10T08:37:40.310Z,2.50
2018-07-10T08:40:10.266Z,2.00
2018-07-10T08:42:41.406Z,1.93
2018-07-10T08:45:13.890Z,2.37
2018-07-10T08:47:45.497Z,2.47
2018-07-10T08:50:17.347Z,2.50
2018-07-10T08:52:47.759Z,1.90
2018-07-10T08:55:18.386Z,2.20
2018-07-10T08:57:48.506Z,2.40
2018-07-10T09:00:19.414Z,2.50
2018-07-10T09:02:50.574Z,2.23
2018-07-10T09:05:20.551Z,2.10
2018-07-10T09:07:49.720Z,2.20
2018-07-10T09:10:20.098Z,2.90
2018-07-10T09:12:50.063Z,2.20
2018-07-10T09:15:20.131Z,2.90
2018-07-10T09:17:49.798Z,2.23
2018-07-10T09:20:27.486Z,2.70
2018-07-10T09:22:57.972Z,3.00
2018-07-10T09:25:28.375Z,2.80
2018-07-10T09:27:58.896Z,2.73
2018-07-10T09:30:29.606Z,2.83
2018-07-10T09:33:00.009Z,2.90
2018-07-10T09:35:30.643Z,2.67
2018-07-10T09:38:01.706Z,2.67
2018-07-10T09:40:31.356Z,2.60
2018-07-10T09:43:04.392Z,2.70
2018-07-10T09:45:36.282Z,2.57
2018-07-10T09:48:08.593Z,2.40
2018-07-10T09:50:39.815Z,2.80
2018-07-10T09:53:10.127Z,2.87
2018-07-10T09:55:40.771Z,2.60
2018-07-10T09:58:11.327Z,2.87
2018-07-10T10:00:46.906Z,2.50
2018-07-10T10:03:17.643Z,3.00
2018-07-10T10:05:48.082Z,2.57
2018-07-10T10:08:19.822Z,2.97
2018-07-10T10:10:50.023Z,2.57
2018-07-10T10:13:19.242Z,2.60
2018-07-10T10:18:25.371Z,2.50
2018-07-10T10:20:54.858Z,2.60
2018-07-10T10:23:24.689Z,2.93
2018-07-10T10:25:54.927Z,2.90
2018-07-10T10:28:26.149Z,3.30
2018-07-10T10:30:56.170Z,3.20
2018-07-10T10:33:26.026Z,3.60
2018-07-10T10:35:55.934Z,3.40
2018-07-10T10:38:26.182Z,3.37
2018-07-10T10:40:57.866Z,3.10
2018-07-10T10:43:28.771Z,3.30
2018-07-10T10:45:59.444Z,3.70
2018-07-10T10:48:29.750Z,3.50
2018-07-10T10:51:00.024Z,3.30
2018-07-10T10:53:30.859Z,3.70
2018-07-10T10:56:01.387Z,3.73
2018-07-10T10:58:32.391Z,3.60
2018-07-10T11:01:03.006Z,4.47
2018-07-10T11:03:32.434Z,4.40
2018-07-10T11:06:02.179Z,3.47
2018-07-10T11:08:33.623Z,4.00
2018-07-10T11:11:04.778Z,4.33
2018-07-10T11:13:35.602Z,3.87
2018-07-10T11:16:04.979Z,4.03
2018-07-10T11:18:38.230Z,3.57
2018-07-10T11:21:17.650Z,3.90
2018-07-10T11:23:55.675Z,3.43
2018-07-10T11:26:26.931Z,4.03
2018-07-10T11:28:56.962Z,3.33
2018-07-10T11:31:27.016Z,4.07
2018-07-10T11:33:56.841Z,3.93
2018-07-10T11:36:27.642Z,4.03
2018-07-10T11:39:03.428Z,3.77
2018-07-10T11:41:34.046Z,3.60
2018-07-10T11:44:06.986Z,3.53
2018-07-10T11:46:36.451Z,3.70
2018-07-10T11:49:07.418Z,3.17
2018-07-10T11:51:38.269Z,3.50
2018-07-10T11:54:07.882Z,3.10
2018-07-10T11:56:37.803Z,3.73
2018-07-10T11:59:08.622Z,3.30
2018-07-10T12:01:38.505Z,3.50
2018-07-10T12:04:08.755Z,3.43
2018-07-10T12:06:44.186Z,3.00
2018-07-10T12:09:13.652Z,3.43
2018-07-10T12:11:44.711Z,4.20
2018-07-10T12:14:15.012Z,3.80
2018-07-10T12:16:44.950Z,3.53
2018-07-10T12:19:15.575Z,3.60
2018-07-10T12:21:45.926Z,3.80
2018-07-10T12:24:15.562Z,3.93
2018-07-10T12:26:44.658Z,4.17
2018-07-10T12:29:15.881Z,4.27
2018-07-10T12:31:45.878Z,4.50
2018-07-10T12:34:15.825Z,4.40
2018-07-10T12:36:45.890Z,4.37
2018-07-10T12:39:15.542Z,4.20
2018-07-10T12:41:45.959Z,4.33
2018-07-10T12:44:16.606Z,4.47
2018-07-10T12:46:47.770Z,4.80
2018-07-10T12:49:17.905Z,4.00
2018-07-10T12:51:48.030Z,4.37
2018-07-10T12:54:17.589Z,4.50
2018-07-10T12:56:48.440Z,4.10
2018-07-10T12:59:18.720Z,4.47
2018-07-10T13:01:52.801Z,4.40
2018-07-10T13:04:22.967Z,4.27
2018-07-10T13:06:56.851Z,4.80
2018-07-10T13:09:27.045Z,5.03
2018-07-10T13:11:56.741Z,4.80
2018-07-10T13:14:26.542Z,4.97
2018-07-10T13:16:55.765Z,4.47
2018-07-10T13:19:26.553Z,5.10
2018-07-10T13:21:56.034Z,4.93
2018-07-10T13:24:26.976Z,4.80
2018-07-10T13:26:57.254Z,4.97
2018-07-10T13:29:26.828Z,5.93
2018-07-10T13:31:55.466Z,5.20
2018-07-10T13:34:25.440Z,5.40
2018-07-10T13:36:56.682Z,5.10
2018-07-10T13:39:27.966Z,5.70
2018-07-10T13:41:57.767Z,5.43
2018-07-10T13:44:27.350Z,5.03
2018-07-10T13:46:57.182Z,5.23
2018-07-10T13:49:26.856Z,5.27
2018-07-10T13:51:57.877Z,4.90
2018-07-10T13:54:28.398Z,5.30
2018-07-10T13:56:59.474Z,5.33
2018-07-10T13:59:29.257Z,5.93
2018-07-10T14:01:59.979Z,5.90
2018-07-10T14:04:31.799Z,5.70
2018-07-10T14:07:01.995Z,5.90
2018-07-10T14:09:32.575Z,5.60
2018-07-10T14:12:02.779Z,5.33
2018-07-10T14:14:33.495Z,5.83
2018-07-10T14:17:03.826Z,5.50
2018-07-10T14:19:33.987Z,4.87
2018-07-10T14:22:04.950Z,4.93
2018-07-10T14:24:34.462Z,5.10
2018-07-10T14:27:04.978Z,5.10
2018-07-10T14:29:35.591Z,5.67
2018-07-10T14:32:05.152Z,5.57
2018-07-10T14:34:34.995Z,4.77
2018-07-10T14:37:04.935Z,5.33
2018-07-10T14:39:34.743Z,5.73
2018-07-10T14:42:05.879Z,5.43
2018-07-10T14:44:36.002Z,5.53
2018-07-10T14:47:07.605Z,5.30
2018-07-10T14:49:37.868Z,5.83
2018-07-10T14:52:07.941Z,5.20
2018-07-10T14:54:38.835Z,6.57
2018-07-10T14:57:09.630Z,6.80
2018-07-10T14:59:39.889Z,6.13
2018-07-10T15:02:10.334Z,6.23
2018-07-10T15:04:39.934Z,6.47
2018-07-10T15:07:10.662Z,5.67
2018-07-10T15:09:39.923Z,6.53
2018-07-10T15:12:09.109Z,6.43
2018-07-10T15:14:39.470Z,5.53
2018-07-10T15:17:14.087Z,5.77
2018-07-10T15:19:44.063Z,6.13
2018-07-10T15:22:14.626Z,6.20
2018-07-10T15:24:44.778Z,5.83
2018-07-10T15:27:14.708Z,6.43
2018-07-10T15:29:44.198Z,6.27
2018-07-10T15:32:14.015Z,5.97
2018-07-10T15:34:43.793Z,6.20
2018-07-10T15:37:14.574Z,7.07
2018-07-10T15:39:44.534Z,6.53
2018-07-10T15:42:16.354Z,7.20
2018-07-10T15:44:46.394Z,6.70
2018-07-10T15:47:17.567Z,6.50
2018-07-10T15:49:47.752Z,7.10
2018-07-10T15:52:17.348Z,6.80
2018-07-10T15:54:46.968Z,6.33
2018-07-10T15:57:15.987Z,6.40
2018-07-10T15:59:45.410Z,6.33
2018-07-10T16:02:15.640Z,6.40
2018-07-10T16:04:46.748Z,6.03
2018-07-10T16:07:17.692Z,5.53
2018-07-10T16:09:47.773Z,7.37
2018-07-10T16:12:18.534Z,7.20
2018-07-10T16:14:50.685Z,5.93
2018-07-10T16:17:23.598Z,6.57
2018-07-10T16:19:58.826Z,6.97
2018-07-10T16:22:29.527Z,6.77
2018-07-10T16:25:06.938Z,6.97
2018-07-10T16:27:46.263Z,7.07
2018-07-10T16:30:18.874Z,6.67
2018-07-10T16:32:48.650Z,7.23
2018-07-10T16:35:21.863Z,7.33
2018-07-10T16:37:51.763Z,7.47
2018-07-10T16:40:21.766Z,6.13
2018-07-10T16:42:53.890Z,6.97
2018-07-10T16:45:28.770Z,6.10
2018-07-10T16:48:16.218Z,5.13
2018-07-10T16:50:59.018Z,5.27
2018-07-10T16:53:34.466Z,3.77
2018-07-10T16:56:04.889Z,3.70
2018-07-10T16:58:39.952Z,3.77
2018-07-10T17:01:10.533Z,3.07
2018-07-10T17:03:40.006Z,3.20
2018-07-10T17:06:10.054Z,3.60
2018-07-10T17:08:39.287Z,3.13
2018-07-10T17:11:07.982Z,3.50
2018-07-10T17:13:37.406Z,3.40
2018-07-10T17:16:07.291Z,3.20
2018-07-10T17:18:36.902Z,3.00
2018-07-10T17:21:06.778Z,3.13
2018-07-10T17:23:36.509Z,2.87
2018-07-10T17:26:11.309Z,2.80
2018-07-10T17:28:43.410Z,2.80
2018-07-10T17:31:13.310Z,2.93
2018-07-10T17:33:43.473Z,2.80
2018-07-10T17:36:13.852Z,2.83
2018-07-10T17:38:45.409Z,2.53
2018-07-10T17:41:16.874Z,2.60
2018-07-10T17:43:47.009Z,2.77
2018-07-10T17:46:16.806Z,2.53
2018-07-10T17:48:47.567Z,2.67
2018-07-10T17:51:17.406Z,2.60
2018-07-10T17:53:46.590Z,2.60
2018-07-10T17:56:16.080Z,2.10
2018-07-10T17:58:47.293Z,2.17
2018-07-10T18:01:18.276Z,2.20
2018-07-10T18:03:49.925Z,2.83
2018-07-10T18:06:20.295Z,2.57
2018-07-10T18:08:52.595Z,2.50
2018-07-10T18:11:22.516Z,2.90
2018-07-10T18:13:54.154Z,2.20
2018-07-10T18:16:28.096Z,2.30
2018-07-10T18:18:57.982Z,2.80
2018-07-10T18:21:28.069Z,2.73
2018-07-10T18:23:57.890Z,2.43
2018-07-10T18:26:28.659Z,3.50
2018-07-10T18:28:59.058Z,2.90
2018-07-10T18:31:30.211Z,3.03
2018-07-10T18:34:01.257Z,3.13
2018-07-10T18:36:34.740Z,2.70
2018-07-10T18:39:04.742Z,3.00
2018-07-10T18:41:35.366Z,3.33
2018-07-10T18:44:06.051Z,3.53
2018-07-10T18:46:36.736Z,3.10
2018-07-10T18:49:06.685Z,3.77
2018-07-10T18:51:36.593Z,4.30
2018-07-10T18:54:06.335Z,3.40
2018-07-10T18:56:35.853Z,3.70
2018-07-10T18:59:07.444Z,4.53
2018-07-10T19:01:47.757Z,3.70
2018-07-10T19:04:17.687Z,3.80
2018-07-10T19:06:48.214Z,3.53
2018-07-10T19:09:32.462Z,3.63
2018-07-10T19:12:05.220Z,5.13
2018-07-10T19:14:34.939Z,3.53
2018-07-10T19:17:08.381Z,5.23
2018-07-10T19:19:39.081Z,3.30
2018-07-10T19:22:13.299Z,3.03
2018-07-10T19:24:44.497Z,3.00
2018-07-10T19:27:22.187Z,3.00
2018-07-10T19:29:56.521Z,2.90
2018-07-10T19:32:27.002Z,3.60
2018-07-10T19:35:00.774Z,3.13
2018-07-10T19:37:33.492Z,3.10
2018-07-10T19:40:03.023Z,2.40
2018-07-10T19:42:34.372Z,2.63
2018-07-10T19:45:05.306Z,2.70
2018-07-10T19:47:34.974Z,2.10
2018-07-10T19:50:09.935Z,2.40
2018-07-10T19:52:40.756Z,2.20
2018-07-10T19:55:11.475Z,1.87
2018-07-10T19:58:06.945Z,1.80
2018-07-10T20:00:41.686Z,2.07
2018-07-10T20:03:12.974Z,1.80
2018-07-10T20:05:43.741Z,1.63
2018-07-10T20:08:15.993Z,1.70
2018-07-10T20:10:54.426Z,1.70
2018-07-10T20:13:37.334Z,1.57
2018-07-10T20:16:13.425Z,1.80
2018-07-10T20:18:58.875Z,1.90
2018-07-10T20:22:37.514Z,1.90
2018-07-10T20:25:18.679Z,2.10
2018-07-10T20:27:56.346Z,2.00
2018-07-10T20:30:37.695Z,1.83
2018-07-10T20:33:12.557Z,1.90
2018-07-10T20:35:50.492Z,2.07
2018-07-10T20:38:20.735Z,2.00
2018-07-10T20:40:51.370Z,1.77
2018-07-10T20:43:22.131Z,1.90
2018-07-10T20:45:53.883Z,1.77
2018-07-10T20:48:33.931Z,2.00
2018-07-10T20:51:10.383Z,1.93
2018-07-10T20:53:45.819Z,1.83
2018-07-10T20:56:28.566Z,2.00
2018-07-10T20:59:40.135Z,1.90
2018-07-10T21:02:39.151Z,1.80
2018-07-10T21:05:12.102Z,1.63
2018-07-10T21:07:57.767Z,1.90
2018-07-10T21:10:32.527Z,2.03
2018-07-10T21:13:09.504Z,1.90
2018-07-10T21:16:52.846Z,1.90
2018-07-10T21:19:45.897Z,1.57
2018-07-10T21:22:24.705Z,1.57
2018-07-10T21:25:04.569Z,1.50
2018-07-10T21:28:47.152Z,1.70
2018-07-10T21:31:28.834Z,1.60
2018-07-10T21:34:40.060Z,1.60
2018-07-10T21:38:18.866Z,1.80
2018-07-10T21:42:02.594Z,1.70
2018-07-10T21:45:42.982Z,1.80
2018-07-10T21:48:18.731Z,2.00
2018-07-10T21:50:50.943Z,1.80
2018-07-10T21:53:21.682Z,1.77
2018-07-10T21:55:51.669Z,2.30
2018-07-10T21:58:22.182Z,1.80
2018-07-10T22:02:03.576Z,1.90
2018-07-10T22:04:34.958Z,2.30
2018-07-10T22:07:08.503Z,2.40
2018-07-10T22:09:38.726Z,2.40
2018-07-10T22:12:10.758Z,1.87
2018-07-10T22:14:40.866Z,1.80
2018-07-10T22:17:26.819Z,1.80
2018-07-10T22:19:58.442Z,2.10
2018-07-10T22:22:30.663Z,1.80
2018-07-10T22:25:03.714Z,1.47
2018-07-10T22:27:34.710Z,1.80
2018-07-10T22:30:10.562Z,1.80
2018-07-10T22:32:45.730Z,1.80
2018-07-10T22:35:16.374Z,1.90
2018-07-10T22:37:45.769Z,1.80
2018-07-10T22:40:16.570Z,2.00
2018-07-10T22:42:46.424Z,1.63
2018-07-10T22:45:18.731Z,1.87
2018-07-10T22:47:48.905Z,1.70
2018-07-10T22:50:21.134Z,1.80
2018-07-10T22:52:59.516Z,1.87
2018-07-10T22:55:32.342Z,1.77
2018-07-10T22:58:06.306Z,1.80
2018-07-10T23:00:38.152Z,1.70
2018-07-10T23:03:20.796Z,1.93
2018-07-10T23:05:51.402Z,1.80
2018-07-10T23:08:28.040Z,1.90
2018-07-10T23:11:01.388Z,2.00
2018-07-10T23:13:32.710Z,1.90
2018-07-10T23:16:01.886Z,2.10
2018-07-10T23:18:32.488Z,1.80
2018-07-10T23:21:02.649Z,2.03
2018-07-10T23:23:32.119Z,1.90
2018-07-10T23:26:02.415Z,1.90
2018-07-10T23:28:33.073Z,2.03
2018-07-10T23:31:04.490Z,1.70
2018-07-10T23:33:35.039Z,2.00
2018-07-10T23:36:07.513Z,1.90
2018-07-10T23:38:46.654Z,1.80
2018-07-10T23:41:31.434Z,2.10
2018-07-10T23:44:02.158Z,2.20
2018-07-10T23:46:41.765Z,1.80
2018-07-10T23:49:15.209Z,2.10
2018-07-10T23:51:56.455Z,2.63
2018-07-10T23:54:26.422Z,2.20
2018-07-10T23:56:56.336Z,2.23
2018-07-10T23:59:26.497Z,2.50
